sensor_id;sensor_type;location;lat;lon;timestamp;temperature;humidity
2407;DHT22;37709;53.480;9.688;2024-03-06T00:00:40;-1.80;99.90
2407;DHT22;37709;53.480;9.688;2024-03-06T00:03:08;-2.00;99.90
2407;DHT22;37709;53.480;9.688;2024-03-06T00:05:36;-2.10;99.90
2407;DHT22;37709;53.480;9.688;2024-03-06T00:08:03;-2.20;99.90
2407;DHT22;37709;53.480;9.688;2024-03-06T00:10:31;-2.20;99.90
2407;DHT22;37709;53.480;9.688;2024-03-06T00:12:58;-2.20;99.90
2407;DHT22;37709;53.480;9.688;2024-03-06T00:15:26;-2.10;99.90
2407;DHT22;37709;53.480;9.688;2024-03-06T00:17:55;-2.00;99.90
2407;DHT22;37709;53.480;9.688;2024-03-06T00:20:23;-2.10;99.90
2407;DHT22;37709;53.480;9.688;2024-03-06T00:22:50;-2.10;99.90
2407;DHT22;37709;53.480;9.688;2024-03-06T00:25:17;-2.10;99.90
2407;DHT22;37709;53.480;9.688;2024-03-06T00:27:46;-2.20;99.90
2407;DHT22;37709;53.480;9.688;2024-03-06T00:30:13;-2.20;99.90
2407;DHT22;37709;53.480;9.688;2024-03-06T00:32:41;-2.20;99.90
2407;DHT22;37709;53.480;9.688;2024-03-06T00:35:08;-2.30;99.90
2407;DHT22;37709;53.480;9.688;2024-03-06T00:37:36;-2.20;99.90
2407;DHT22;37709;53.480;9.688;2024-03-06T00:40:03;-2.10;99.90
2407;DHT22;37709;53.480;9.688;2024-03-06T00:42:31;-2.10;99.90
2407;DHT22;37709;53.480;9.688;2024-03-06T00:44:59;-2.00;99.90
2407;DHT22;37709;53.480;9.688;2024-03-06T00:47:26;-1.90;99.90
2407;DHT22;37709;53.480;9.688;2024-03-06T00:49:56;-1.60;99.90
2407;DHT22;37709;53.480;9.688;2024-03-06T00:52:23;-1.50;99.90
2407;DHT22;37709;53.480;9.688;2024-03-06T00:54:50;-1.40;99.90
2407;DHT22;37709;53.480;9.688;2024-03-06T00:57:18;-1.40;99.90
2407;DHT22;37709;53.480;9.688;2024-03-06T00:59:45;-1.30;99.90
2407;DHT22;37709;53.480;9.688;2024-03-06T01:02:13;-1.30;99.90
2407;DHT22;37709;53.480;9.688;2024-03-06T01:04:40;-1.30;99.90
2407;DHT22;37709;53.480;9.688;2024-03-06T01:07:09;-1.40;99.90
2407;DHT22;37709;53.480;9.688;2024-03-06T01:09:36;-1.40;99.90
2407;DHT22;37709;53.480;9.688;2024-03-06T01:12:05;-1.40;99.90
2407;DHT22;37709;53.480;9.688;2024-03-06T01:14:32;-1.50;99.90
2407;DHT22;37709;53.480;9.688;2024-03-06T01:17:03;-1.70;99.90
2407;DHT22;37709;53.480;9.688;2024-03-06T01:19:31;-1.80;99.90
2407;DHT22;37709;53.480;9.688;2024-03-06T01:21:59;-1.80;99.90
2407;DHT22;37709;53.480;9.688;2024-03-06T01:24:26;-1.80;99.90
2407;DHT22;37709;53.480;9.688;2024-03-06T01:26:54;-1.80;99.90
2407;DHT22;37709;53.480;9.688;2024-03-06T01:29:21;-1.90;99.90
2407;DHT22;37709;53.480;9.688;2024-03-06T01:31:49;-1.80;99.90
2407;DHT22;37709;53.480;9.688;2024-03-06T01:34:18;-1.80;99.90
2407;DHT22;37709;53.480;9.688;2024-03-06T01:36:46;-1.90;99.90
2407;DHT22;37709;53.480;9.688;2024-03-06T01:39:14;-1.80;99.90
2407;DHT22;37709;53.480;9.688;2024-03-06T01:41:49;-1.80;99.90
2407;DHT22;37709;53.480;9.688;2024-03-06T01:44:17;-1.90;99.90
2407;DHT22;37709;53.480;9.688;2024-03-06T01:46:46;-1.90;99.90
2407;DHT22;37709;53.480;9.688;2024-03-06T01:49:15;-2.00;99.90
2407;DHT22;37709;53.480;9.688;2024-03-06T01:51:59;-2.00;99.90
2407;DHT22;37709;53.480;9.688;2024-03-06T01:54:27;-1.70;99.90
2407;DHT22;37709;53.480;9.688;2024-03-06T01:56:55;-1.60;99.90
2407;DHT22;37709;53.480;9.688;2024-03-06T01:59:25;-1.50;99.90
2407;DHT22;37709;53.480;9.688;2024-03-06T02:02:05;-1.40;99.90
2407;DHT22;37709;53.480;9.688;2024-03-06T02:04:33;-1.00;99.90
2407;DHT22;37709;53.480;9.688;2024-03-06T02:07:01;-1.00;99.90
2407;DHT22;37709;53.480;9.688;2024-03-06T02:09:29;-1.20;99.90
2407;DHT22;37709;53.480;9.688;2024-03-06T02:11:57;-1.40;99.90
2407;DHT22;37709;53.480;9.688;2024-03-06T02:14:24;-1.40;99.90
2407;DHT22;37709;53.480;9.688;2024-03-06T02:16:51;-1.30;99.90
2407;DHT22;37709;53.480;9.688;2024-03-06T02:19:18;-1.50;99.90
2407;DHT22;37709;53.480;9.688;2024-03-06T02:21:46;-1.60;99.90
2407;DHT22;37709;53.480;9.688;2024-03-06T02:24:13;-1.80;99.90
2407;DHT22;37709;53.480;9.688;2024-03-06T02:26:41;-1.90;99.90
2407;DHT22;37709;53.480;9.688;2024-03-06T02:29:09;-2.00;99.90
2407;DHT22;37709;53.480;9.688;2024-03-06T02:31:37;-2.10;99.90
2407;DHT22;37709;53.480;9.688;2024-03-06T02:34:06;-2.30;99.90
2407;DHT22;37709;53.480;9.688;2024-03-06T02:36:35;-2.30;99.90
2407;DHT22;37709;53.480;9.688;2024-03-06T02:39:03;-2.30;99.90
2407;DHT22;37709;53.480;9.688;2024-03-06T02:41:36;-2.40;99.90
2407;DHT22;37709;53.480;9.688;2024-03-06T02:44:04;-2.40;99.90
2407;DHT22;37709;53.480;9.688;2024-03-06T02:46:31;-1.90;99.90
2407;DHT22;37709;53.480;9.688;2024-03-06T02:48:59;-2.10;99.90
2407;DHT22;37709;53.480;9.688;2024-03-06T02:51:26;-2.30;99.90
2407;DHT22;37709;53.480;9.688;2024-03-06T02:53:54;-2.40;99.90
2407;DHT22;37709;53.480;9.688;2024-03-06T02:56:21;-2.60;99.90
2407;DHT22;37709;53.480;9.688;2024-03-06T02:58:50;-2.60;99.90
2407;DHT22;37709;53.480;9.688;2024-03-06T03:01:17;-2.70;99.90
2407;DHT22;37709;53.480;9.688;2024-03-06T03:03:44;-2.60;99.90
2407;DHT22;37709;53.480;9.688;2024-03-06T03:06:14;-2.70;99.90
2407;DHT22;37709;53.480;9.688;2024-03-06T03:08:43;-2.80;99.90
2407;DHT22;37709;53.480;9.688;2024-03-06T03:11:10;-2.90;99.90
2407;DHT22;37709;53.480;9.688;2024-03-06T03:13:38;-2.90;99.90
2407;DHT22;37709;53.480;9.688;2024-03-06T03:16:06;-2.90;99.90
2407;DHT22;37709;53.480;9.688;2024-03-06T03:18:34;-2.90;99.90
2407;DHT22;37709;53.480;9.688;2024-03-06T03:21:08;-2.90;99.90
2407;DHT22;37709;53.480;9.688;2024-03-06T03:23:36;-2.70;99.90
2407;DHT22;37709;53.480;9.688;2024-03-06T03:26:05;-2.60;99.90
2407;DHT22;37709;53.480;9.688;2024-03-06T03:28:33;-2.60;99.90
2407;DHT22;37709;53.480;9.688;2024-03-06T03:31:00;-2.70;99.90
2407;DHT22;37709;53.480;9.688;2024-03-06T03:33:28;-2.70;99.90
2407;DHT22;37709;53.480;9.688;2024-03-06T03:35:55;-2.80;99.90
2407;DHT22;37709;53.480;9.688;2024-03-06T03:38:22;-2.90;99.90
2407;DHT22;37709;53.480;9.688;2024-03-06T03:40:51;-3.00;99.90
2407;DHT22;37709;53.480;9.688;2024-03-06T03:43:18;-3.00;99.90
2407;DHT22;37709;53.480;9.688;2024-03-06T03:45:47;-2.90;99.90
2407;DHT22;37709;53.480;9.688;2024-03-06T03:48:14;-3.00;99.90
2407;DHT22;37709;53.480;9.688;2024-03-06T03:50:42;-3.10;99.90
2407;DHT22;37709;53.480;9.688;2024-03-06T03:53:10;-3.10;99.90
2407;DHT22;37709;53.480;9.688;2024-03-06T03:55:37;-3.10;99.90
2407;DHT22;37709;53.480;9.688;2024-03-06T03:58:04;-3.20;99.90
2407;DHT22;37709;53.480;9.688;2024-03-06T04:00:34;-3.20;99.90
2407;DHT22;37709;53.480;9.688;2024-03-06T04:03:01;-3.20;99.90
2407;DHT22;37709;53.480;9.688;2024-03-06T04:05:29;-3.20;99.90
2407;DHT22;37709;53.480;9.688;2024-03-06T04:07:56;-3.30;99.90
2407;DHT22;37709;53.480;9.688;2024-03-06T04:10:24;-3.30;99.90
2407;DHT22;37709;53.480;9.688;2024-03-06T04:12:52;-3.40;99.90
2407;DHT22;37709;53.480;9.688;2024-03-06T04:15:20;-3.40;99.90
2407;DHT22;37709;53.480;9.688;2024-03-06T04:17:48;-3.30;99.90
2407;DHT22;37709;53.480;9.688;2024-03-06T04:20:15;-3.30;99.90
2407;DHT22;37709;53.480;9.688;2024-03-06T04:22:44;-3.40;99.90
2407;DHT22;37709;53.480;9.688;2024-03-06T04:25:13;-3.50;99.90
2407;DHT22;37709;53.480;9.688;2024-03-06T04:27:41;-3.50;99.90
2407;DHT22;37709;53.480;9.688;2024-03-06T04:30:08;-3.60;99.90
2407;DHT22;37709;53.480;9.688;2024-03-06T04:32:36;-3.60;99.90
2407;DHT22;37709;53.480;9.688;2024-03-06T04:35:04;-3.50;99.90
2407;DHT22;37709;53.480;9.688;2024-03-06T04:37:34;-3.30;99.90
2407;DHT22;37709;53.480;9.688;2024-03-06T04:40:03;-3.20;99.90
2407;DHT22;37709;53.480;9.688;2024-03-06T04:42:30;-3.30;99.90
2407;DHT22;37709;53.480;9.688;2024-03-06T04:44:58;-3.40;99.90
2407;DHT22;37709;53.480;9.688;2024-03-06T04:47:26;-3.40;99.90
2407;DHT22;37709;53.480;9.688;2024-03-06T04:49:56;-3.40;99.90
2407;DHT22;37709;53.480;9.688;2024-03-06T04:52:26;-3.30;99.90
2407;DHT22;37709;53.480;9.688;2024-03-06T04:54:53;-3.20;99.90
2407;DHT22;37709;53.480;9.688;2024-03-06T04:57:21;-3.10;99.90
2407;DHT22;37709;53.480;9.688;2024-03-06T04:59:48;-3.20;99.90
2407;DHT22;37709;53.480;9.688;2024-03-06T05:02:16;-3.20;99.90
2407;DHT22;37709;53.480;9.688;2024-03-06T05:04:45;-3.30;99.90
2407;DHT22;37709;53.480;9.688;2024-03-06T05:07:31;-3.30;99.90
2407;DHT22;37709;53.480;9.688;2024-03-06T05:10:17;-3.30;99.90
2407;DHT22;37709;53.480;9.688;2024-03-06T05:13:02;-3.40;99.90
2407;DHT22;37709;53.480;9.688;2024-03-06T05:15:47;-3.40;99.90
2407;DHT22;37709;53.480;9.688;2024-03-06T05:18:34;-3.40;99.90
2407;DHT22;37709;53.480;9.688;2024-03-06T05:21:20;-3.40;99.90
2407;DHT22;37709;53.480;9.688;2024-03-06T05:24:06;-3.60;99.90
2407;DHT22;37709;53.480;9.688;2024-03-06T05:26:51;-3.60;99.90
2407;DHT22;37709;53.480;9.688;2024-03-06T05:29:36;-3.60;99.90
2407;DHT22;37709;53.480;9.688;2024-03-06T05:32:21;-3.50;99.90
2407;DHT22;37709;53.480;9.688;2024-03-06T05:35:06;-3.40;99.90
2407;DHT22;37709;53.480;9.688;2024-03-06T05:37:52;-3.50;99.90
2407;DHT22;37709;53.480;9.688;2024-03-06T05:40:37;-3.60;99.90
2407;DHT22;37709;53.480;9.688;2024-03-06T05:43:25;-3.70;99.90
2407;DHT22;37709;53.480;9.688;2024-03-06T05:46:10;-3.80;99.90
2407;DHT22;37709;53.480;9.688;2024-03-06T05:48:56;-3.90;99.90
2407;DHT22;37709;53.480;9.688;2024-03-06T05:51:41;-3.70;99.90
2407;DHT22;37709;53.480;9.688;2024-03-06T05:54:26;-3.60;99.90
2407;DHT22;37709;53.480;9.688;2024-03-06T05:57:12;-3.60;99.90
2407;DHT22;37709;53.480;9.688;2024-03-06T05:59:57;-3.50;99.90
2407;DHT22;37709;53.480;9.688;2024-03-06T06:02:24;-3.70;99.90
2407;DHT22;37709;53.480;9.688;2024-03-06T06:04:52;-3.60;99.90
2407;DHT22;37709;53.480;9.688;2024-03-06T06:07:38;-3.60;99.90
2407;DHT22;37709;53.480;9.688;2024-03-06T06:10:05;-3.50;99.90
2407;DHT22;37709;53.480;9.688;2024-03-06T06:12:39;-3.50;99.90
2407;DHT22;37709;53.480;9.688;2024-03-06T06:15:06;-3.50;99.90
2407;DHT22;37709;53.480;9.688;2024-03-06T06:17:34;-3.50;99.90
2407;DHT22;37709;53.480;9.688;2024-03-06T06:20:08;-3.50;99.90
2407;DHT22;37709;53.480;9.688;2024-03-06T06:22:44;-3.40;99.90
2407;DHT22;37709;53.480;9.688;2024-03-06T06:25:13;-3.30;99.90
2407;DHT22;37709;53.480;9.688;2024-03-06T06:27:43;-3.30;99.90
2407;DHT22;37709;53.480;9.688;2024-03-06T06:30:13;-3.20;99.90
2407;DHT22;37709;53.480;9.688;2024-03-06T06:32:42;-3.10;99.90
2407;DHT22;37709;53.480;9.688;2024-03-06T06:35:12;-2.90;99.90
2407;DHT22;37709;53.480;9.688;2024-03-06T06:37:42;-2.80;99.90
2407;DHT22;37709;53.480;9.688;2024-03-06T06:40:09;-2.70;99.90
2407;DHT22;37709;53.480;9.688;2024-03-06T06:42:44;-2.60;99.90
2407;DHT22;37709;53.480;9.688;2024-03-06T06:45:12;-2.50;99.90
2407;DHT22;37709;53.480;9.688;2024-03-06T06:47:39;-2.20;99.90
2407;DHT22;37709;53.480;9.688;2024-03-06T06:50:08;-2.10;99.90
2407;DHT22;37709;53.480;9.688;2024-03-06T06:52:37;-1.90;99.90
2407;DHT22;37709;53.480;9.688;2024-03-06T06:55:04;-1.80;99.90
2407;DHT22;37709;53.480;9.688;2024-03-06T06:57:33;-1.70;99.90
2407;DHT22;37709;53.480;9.688;2024-03-06T07:00:02;-1.40;99.90
2407;DHT22;37709;53.480;9.688;2024-03-06T07:02:41;0.10;99.90
2407;DHT22;37709;53.480;9.688;2024-03-06T07:05:09;1.50;99.90
2407;DHT22;37709;53.480;9.688;2024-03-06T07:07:37;2.50;99.90
2407;DHT22;37709;53.480;9.688;2024-03-06T07:10:05;3.30;99.90
2407;DHT22;37709;53.480;9.688;2024-03-06T07:12:33;4.00;99.90
2407;DHT22;37709;53.480;9.688;2024-03-06T07:15:02;4.50;99.90
2407;DHT22;37709;53.480;9.688;2024-03-06T07:17:31;5.00;99.90
2407;DHT22;37709;53.480;9.688;2024-03-06T07:19:59;5.50;99.90
2407;DHT22;37709;53.480;9.688;2024-03-06T07:22:26;5.80;99.90
2407;DHT22;37709;53.480;9.688;2024-03-06T07:24:54;6.10;99.90
2407;DHT22;37709;53.480;9.688;2024-03-06T07:27:21;6.30;99.90
2407;DHT22;37709;53.480;9.688;2024-03-06T07:29:50;6.60;99.90
2407;DHT22;37709;53.480;9.688;2024-03-06T07:32:18;6.40;99.90
2407;DHT22;37709;53.480;9.688;2024-03-06T07:34:45;6.80;99.90
2407;DHT22;37709;53.480;9.688;2024-03-06T07:37:12;7.00;99.90
2407;DHT22;37709;53.480;9.688;2024-03-06T07:39:41;6.80;99.90
2407;DHT22;37709;53.480;9.688;2024-03-06T07:42:10;7.30;99.90
2407;DHT22;37709;53.480;9.688;2024-03-06T07:44:38;7.00;99.90
2407;DHT22;37709;53.480;9.688;2024-03-06T07:47:06;6.70;99.90
2407;DHT22;37709;53.480;9.688;2024-03-06T07:49:34;5.60;99.90
2407;DHT22;37709;53.480;9.688;2024-03-06T07:52:02;5.20;99.90
2407;DHT22;37709;53.480;9.688;2024-03-06T07:54:31;5.40;99.90
2407;DHT22;37709;53.480;9.688;2024-03-06T07:57:00;6.00;99.90
2407;DHT22;37709;53.480;9.688;2024-03-06T07:59:27;6.10;99.90
2407;DHT22;37709;53.480;9.688;2024-03-06T08:01:54;6.00;99.90
2407;DHT22;37709;53.480;9.688;2024-03-06T08:04:23;6.90;99.90
2407;DHT22;37709;53.480;9.688;2024-03-06T08:06:51;6.60;99.90
2407;DHT22;37709;53.480;9.688;2024-03-06T08:09:21;8.10;99.90
2407;DHT22;37709;53.480;9.688;2024-03-06T08:12:13;8.00;99.90
2407;DHT22;37709;53.480;9.688;2024-03-06T08:14:41;7.90;99.90
2407;DHT22;37709;53.480;9.688;2024-03-06T08:17:09;7.30;99.90
2407;DHT22;37709;53.480;9.688;2024-03-06T08:19:36;6.70;99.90
2407;DHT22;37709;53.480;9.688;2024-03-06T08:22:04;7.20;99.90
2407;DHT22;37709;53.480;9.688;2024-03-06T08:24:33;8.70;99.90
2407;DHT22;37709;53.480;9.688;2024-03-06T08:27:00;9.80;99.90
2407;DHT22;37709;53.480;9.688;2024-03-06T08:29:27;9.90;99.90
2407;DHT22;37709;53.480;9.688;2024-03-06T08:31:56;9.70;99.90
2407;DHT22;37709;53.480;9.688;2024-03-06T08:34:27;10.40;99.90
2407;DHT22;37709;53.480;9.688;2024-03-06T08:36:54;10.40;99.90
2407;DHT22;37709;53.480;9.688;2024-03-06T08:39:22;12.60;99.90
2407;DHT22;37709;53.480;9.688;2024-03-06T08:41:50;12.20;99.90
2407;DHT22;37709;53.480;9.688;2024-03-06T08:44:21;13.20;99.90
2407;DHT22;37709;53.480;9.688;2024-03-06T08:46:48;13.00;99.90
2407;DHT22;37709;53.480;9.688;2024-03-06T08:49:16;14.50;99.90
2407;DHT22;37709;53.480;9.688;2024-03-06T08:51:43;15.90;99.90
2407;DHT22;37709;53.480;9.688;2024-03-06T08:54:10;16.70;99.90
2407;DHT22;37709;53.480;9.688;2024-03-06T08:59:12;16.80;99.90
2407;DHT22;37709;53.480;9.688;2024-03-06T09:01:39;15.30;99.90
2407;DHT22;37709;53.480;9.688;2024-03-06T09:04:06;15.50;99.90
2407;DHT22;37709;53.480;9.688;2024-03-06T09:06:34;16.10;99.90
2407;DHT22;37709;53.480;9.688;2024-03-06T09:09:02;14.30;99.90
2407;DHT22;37709;53.480;9.688;2024-03-06T09:11:30;15.30;99.90
2407;DHT22;37709;53.480;9.688;2024-03-06T09:13:57;17.30;99.90
2407;DHT22;37709;53.480;9.688;2024-03-06T09:16:25;18.20;99.90
2407;DHT22;37709;53.480;9.688;2024-03-06T09:18:53;17.00;99.90
2407;DHT22;37709;53.480;9.688;2024-03-06T09:21:20;17.90;99.90
2407;DHT22;37709;53.480;9.688;2024-03-06T09:23:49;17.50;99.90
2407;DHT22;37709;53.480;9.688;2024-03-06T09:26:18;17.80;99.90
2407;DHT22;37709;53.480;9.688;2024-03-06T09:28:50;17.10;99.90
2407;DHT22;37709;53.480;9.688;2024-03-06T09:31:18;17.70;99.90
2407;DHT22;37709;53.480;9.688;2024-03-06T09:33:50;17.60;99.90
2407;DHT22;37709;53.480;9.688;2024-03-06T09:36:19;17.70;99.90
2407;DHT22;37709;53.480;9.688;2024-03-06T09:38:48;18.20;99.90
2407;DHT22;37709;53.480;9.688;2024-03-06T09:41:15;20.50;99.90
2407;DHT22;37709;53.480;9.688;2024-03-06T09:43:46;19.70;99.90
2407;DHT22;37709;53.480;9.688;2024-03-06T09:46:14;19.30;99.90
2407;DHT22;37709;53.480;9.688;2024-03-06T09:48:47;17.70;99.90
2407;DHT22;37709;53.480;9.688;2024-03-06T09:51:15;15.10;99.90
2407;DHT22;37709;53.480;9.688;2024-03-06T09:53:43;17.70;99.90
2407;DHT22;37709;53.480;9.688;2024-03-06T09:56:10;19.70;99.90
2407;DHT22;37709;53.480;9.688;2024-03-06T09:58:38;19.30;99.90
2407;DHT22;37709;53.480;9.688;2024-03-06T10:01:07;19.70;99.90
2407;DHT22;37709;53.480;9.688;2024-03-06T10:03:37;19.90;99.90
2407;DHT22;37709;53.480;9.688;2024-03-06T10:06:06;19.80;99.90
2407;DHT22;37709;53.480;9.688;2024-03-06T10:08:42;20.40;99.90
2407;DHT22;37709;53.480;9.688;2024-03-06T10:11:17;20.80;99.90
2407;DHT22;37709;53.480;9.688;2024-03-06T10:13:44;20.90;99.90
2407;DHT22;37709;53.480;9.688;2024-03-06T10:18:42;21.90;99.90
2407;DHT22;37709;53.480;9.688;2024-03-06T10:21:09;21.00;99.90
2407;DHT22;37709;53.480;9.688;2024-03-06T10:23:37;22.70;99.90
2407;DHT22;37709;53.480;9.688;2024-03-06T10:26:07;23.30;97.90
2407;DHT22;37709;53.480;9.688;2024-03-06T10:28:36;22.60;98.30
2407;DHT22;37709;53.480;9.688;2024-03-06T10:31:04;22.10;96.60
2407;DHT22;37709;53.480;9.688;2024-03-06T10:34:00;20.20;96.80
2407;DHT22;37709;53.480;9.688;2024-03-06T10:36:31;20.80;97.00
2407;DHT22;37709;53.480;9.688;2024-03-06T10:39:02;22.30;95.70
2407;DHT22;37709;53.480;9.688;2024-03-06T10:41:32;22.90;96.80
2407;DHT22;37709;53.480;9.688;2024-03-06T10:44:00;22.80;94.90
2407;DHT22;37709;53.480;9.688;2024-03-06T10:46:33;22.80;94.30
2407;DHT22;37709;53.480;9.688;2024-03-06T10:49:01;23.50;92.60
2407;DHT22;37709;53.480;9.688;2024-03-06T10:51:30;24.10;92.30
2407;DHT22;37709;53.480;9.688;2024-03-06T10:53:58;24.30;92.70
2407;DHT22;37709;53.480;9.688;2024-03-06T10:56:28;25.20;91.60
2407;DHT22;37709;53.480;9.688;2024-03-06T10:58:57;25.40;87.40
2407;DHT22;37709;53.480;9.688;2024-03-06T11:01:25;25.50;85.60
2407;DHT22;37709;53.480;9.688;2024-03-06T11:03:55;25.00;85.90
2407;DHT22;37709;53.480;9.688;2024-03-06T11:06:26;24.10;86.30
2407;DHT22;37709;53.480;9.688;2024-03-06T11:08:54;25.60;89.70
2407;DHT22;37709;53.480;9.688;2024-03-06T11:11:23;26.40;81.60
2407;DHT22;37709;53.480;9.688;2024-03-06T11:14:00;27.50;84.80
2407;DHT22;37709;53.480;9.688;2024-03-06T11:16:29;28.60;77.30
2407;DHT22;37709;53.480;9.688;2024-03-06T11:19:07;26.90;72.40
2407;DHT22;37709;53.480;9.688;2024-03-06T11:21:45;25.40;76.60
2407;DHT22;37709;53.480;9.688;2024-03-06T11:24:31;28.20;76.30
2407;DHT22;37709;53.480;9.688;2024-03-06T11:27:03;29.70;68.30
2407;DHT22;37709;53.480;9.688;2024-03-06T11:30:07;27.90;67.80
2407;DHT22;37709;53.480;9.688;2024-03-06T11:33:00;26.00;66.60
2407;DHT22;37709;53.480;9.688;2024-03-06T11:35:29;26.40;67.90
2407;DHT22;37709;53.480;9.688;2024-03-06T11:37:59;25.90;67.50
2407;DHT22;37709;53.480;9.688;2024-03-06T11:40:27;25.00;69.10
2407;DHT22;37709;53.480;9.688;2024-03-06T11:42:55;24.90;68.10
2407;DHT22;37709;53.480;9.688;2024-03-06T11:45:23;26.70;69.90
2407;DHT22;37709;53.480;9.688;2024-03-06T11:48:02;28.40;68.10
2407;DHT22;37709;53.480;9.688;2024-03-06T11:50:31;27.60;62.90
2407;DHT22;37709;53.480;9.688;2024-03-06T11:53:00;28.90;65.60
2407;DHT22;37709;53.480;9.688;2024-03-06T11:55:30;28.80;61.50
2407;DHT22;37709;53.480;9.688;2024-03-06T11:57:57;28.60;64.10
2407;DHT22;37709;53.480;9.688;2024-03-06T12:00:25;28.00;62.00
2407;DHT22;37709;53.480;9.688;2024-03-06T12:02:52;27.70;62.50
2407;DHT22;37709;53.480;9.688;2024-03-06T12:05:19;29.00;62.90
2407;DHT22;37709;53.480;9.688;2024-03-06T12:07:52;29.80;60.40
2407;DHT22;37709;53.480;9.688;2024-03-06T12:10:20;29.00;58.50
2407;DHT22;37709;53.480;9.688;2024-03-06T12:12:47;28.70;59.70
2407;DHT22;37709;53.480;9.688;2024-03-06T12:15:15;26.70;61.00
2407;DHT22;37709;53.480;9.688;2024-03-06T12:17:45;28.00;63.00
2407;DHT22;37709;53.480;9.688;2024-03-06T12:20:18;30.70;60.60
2407;DHT22;37709;53.480;9.688;2024-03-06T12:22:49;31.80;58.50
2407;DHT22;37709;53.480;9.688;2024-03-06T12:25:21;32.10;57.30
2407;DHT22;37709;53.480;9.688;2024-03-06T12:27:53;33.30;56.80
2407;DHT22;37709;53.480;9.688;2024-03-06T12:30:21;33.40;54.00
2407;DHT22;37709;53.480;9.688;2024-03-06T12:33:00;33.80;52.70
2407;DHT22;37709;53.480;9.688;2024-03-06T12:35:31;33.60;52.00
2407;DHT22;37709;53.480;9.688;2024-03-06T12:37:59;33.70;50.30
2407;DHT22;37709;53.480;9.688;2024-03-06T12:40:28;32.50;50.10
2407;DHT22;37709;53.480;9.688;2024-03-06T12:42:55;32.40;48.00
2407;DHT22;37709;53.480;9.688;2024-03-06T12:45:23;28.80;49.30
2407;DHT22;37709;53.480;9.688;2024-03-06T12:47:50;29.70;50.00
2407;DHT22;37709;53.480;9.688;2024-03-06T12:50:19;27.80;51.90
2407;DHT22;37709;53.480;9.688;2024-03-06T12:52:48;25.90;57.10
2407;DHT22;37709;53.480;9.688;2024-03-06T12:55:16;27.70;56.90
2407;DHT22;37709;53.480;9.688;2024-03-06T12:57:45;26.20;56.40
2407;DHT22;37709;53.480;9.688;2024-03-06T13:00:13;25.30;57.50
2407;DHT22;37709;53.480;9.688;2024-03-06T13:02:43;27.00;56.60
2407;DHT22;37709;53.480;9.688;2024-03-06T13:05:12;24.40;56.90
2407;DHT22;37709;53.480;9.688;2024-03-06T13:07:42;24.50;60.00
2407;DHT22;37709;53.480;9.688;2024-03-06T13:10:10;26.00;55.10
2407;DHT22;37709;53.480;9.688;2024-03-06T13:12:39;25.00;56.50
2407;DHT22;37709;53.480;9.688;2024-03-06T13:15:08;26.10;57.70
2407;DHT22;37709;53.480;9.688;2024-03-06T13:17:37;25.60;54.80
2407;DHT22;37709;53.480;9.688;2024-03-06T13:20:05;23.60;57.80
2407;DHT22;37709;53.480;9.688;2024-03-06T13:22:36;25.40;58.30
2407;DHT22;37709;53.480;9.688;2024-03-06T13:25:04;27.80;57.40
2407;DHT22;37709;53.480;9.688;2024-03-06T13:27:34;28.90;55.50
2407;DHT22;37709;53.480;9.688;2024-03-06T13:30:01;30.00;55.90
2407;DHT22;37709;53.480;9.688;2024-03-06T13:32:32;29.90;54.40
2407;DHT22;37709;53.480;9.688;2024-03-06T13:35:01;30.20;53.50
2407;DHT22;37709;53.480;9.688;2024-03-06T13:37:29;30.00;53.20
2407;DHT22;37709;53.480;9.688;2024-03-06T13:39:56;28.50;51.50
2407;DHT22;37709;53.480;9.688;2024-03-06T13:42:28;27.60;51.90
2407;DHT22;37709;53.480;9.688;2024-03-06T13:44:56;27.80;53.10
2407;DHT22;37709;53.480;9.688;2024-03-06T13:47:23;28.80;53.80
2407;DHT22;37709;53.480;9.688;2024-03-06T13:49:50;29.70;55.10
2407;DHT22;37709;53.480;9.688;2024-03-06T13:52:18;30.00;50.80
2407;DHT22;37709;53.480;9.688;2024-03-06T13:55:12;28.90;50.60
2407;DHT22;37709;53.480;9.688;2024-03-06T13:57:40;28.50;51.10
2407;DHT22;37709;53.480;9.688;2024-03-06T14:00:09;29.10;50.90
2407;DHT22;37709;53.480;9.688;2024-03-06T14:02:44;29.10;49.70
2407;DHT22;37709;53.480;9.688;2024-03-06T14:05:40;27.40;50.50
2407;DHT22;37709;53.480;9.688;2024-03-06T14:08:08;28.00;51.90
2407;DHT22;37709;53.480;9.688;2024-03-06T14:13:49;28.60;50.30
2407;DHT22;37709;53.480;9.688;2024-03-06T14:16:16;28.90;50.20
2407;DHT22;37709;53.480;9.688;2024-03-06T14:18:44;29.00;49.60
2407;DHT22;37709;53.480;9.688;2024-03-06T14:21:11;28.30;48.00
2407;DHT22;37709;53.480;9.688;2024-03-06T14:23:39;27.90;48.60
2407;DHT22;37709;53.480;9.688;2024-03-06T14:26:06;27.00;48.60
2407;DHT22;37709;53.480;9.688;2024-03-06T14:28:34;26.00;51.20
2407;DHT22;37709;53.480;9.688;2024-03-06T14:31:02;26.30;52.10
2407;DHT22;37709;53.480;9.688;2024-03-06T14:33:29;25.40;50.10
2407;DHT22;37709;53.480;9.688;2024-03-06T14:35:57;24.40;51.50
2407;DHT22;37709;53.480;9.688;2024-03-06T14:38:25;24.90;53.00
2407;DHT22;37709;53.480;9.688;2024-03-06T14:40:52;25.40;52.90
2407;DHT22;37709;53.480;9.688;2024-03-06T14:43:19;25.50;52.70
2407;DHT22;37709;53.480;9.688;2024-03-06T14:45:47;25.50;52.60
2407;DHT22;37709;53.480;9.688;2024-03-06T14:48:14;24.20;51.40
2407;DHT22;37709;53.480;9.688;2024-03-06T14:50:43;23.50;51.80
2407;DHT22;37709;53.480;9.688;2024-03-06T14:53:11;23.50;52.90
2407;DHT22;37709;53.480;9.688;2024-03-06T14:55:42;23.50;56.60
2407;DHT22;37709;53.480;9.688;2024-03-06T14:58:10;23.10;56.90
2407;DHT22;37709;53.480;9.688;2024-03-06T15:00:38;22.80;58.00
2407;DHT22;37709;53.480;9.688;2024-03-06T15:03:06;22.20;57.00
2407;DHT22;37709;53.480;9.688;2024-03-06T15:05:35;22.10;58.80
2407;DHT22;37709;53.480;9.688;2024-03-06T15:08:02;21.80;60.40
2407;DHT22;37709;53.480;9.688;2024-03-06T15:10:36;20.70;60.40
2407;DHT22;37709;53.480;9.688;2024-03-06T15:13:03;20.10;61.90
2407;DHT22;37709;53.480;9.688;2024-03-06T15:15:31;19.40;64.50
2407;DHT22;37709;53.480;9.688;2024-03-06T15:17:59;19.20;65.50
2407;DHT22;37709;53.480;9.688;2024-03-06T15:20:27;18.90;66.10
2407;DHT22;37709;53.480;9.688;2024-03-06T15:22:56;18.40;69.80
2407;DHT22;37709;53.480;9.688;2024-03-06T15:25:24;18.10;71.30
2407;DHT22;37709;53.480;9.688;2024-03-06T15:27:51;17.40;72.10
2407;DHT22;37709;53.480;9.688;2024-03-06T15:30:22;17.20;75.30
2407;DHT22;37709;53.480;9.688;2024-03-06T15:32:50;16.80;75.30
2407;DHT22;37709;53.480;9.688;2024-03-06T15:35:20;16.50;77.10
2407;DHT22;37709;53.480;9.688;2024-03-06T15:37:47;15.90;80.80
2407;DHT22;37709;53.480;9.688;2024-03-06T15:40:17;15.80;80.40
2407;DHT22;37709;53.480;9.688;2024-03-06T15:42:44;14.60;83.30
2407;DHT22;37709;53.480;9.688;2024-03-06T15:45:15;13.90;88.30
2407;DHT22;37709;53.480;9.688;2024-03-06T15:47:42;14.00;91.40
2407;DHT22;37709;53.480;9.688;2024-03-06T15:50:11;13.90;92.00
2407;DHT22;37709;53.480;9.688;2024-03-06T15:52:40;13.80;92.90
2407;DHT22;37709;53.480;9.688;2024-03-06T15:55:08;13.10;94.60
2407;DHT22;37709;53.480;9.688;2024-03-06T15:57:37;12.80;96.20
2407;DHT22;37709;53.480;9.688;2024-03-06T16:00:06;12.60;98.20
2407;DHT22;37709;53.480;9.688;2024-03-06T16:02:36;11.90;99.30
2407;DHT22;37709;53.480;9.688;2024-03-06T16:05:04;11.60;99.90
2407;DHT22;37709;53.480;9.688;2024-03-06T16:07:59;11.30;99.90
2407;DHT22;37709;53.480;9.688;2024-03-06T16:10:32;10.80;99.90
2407;DHT22;37709;53.480;9.688;2024-03-06T16:13:01;10.50;99.90